Time;durP1;ratioP1;P1;durP2;ratioP2;P2;SDS_P1;SDS_P2;PMS_P1;PMS_P2;Temp;Humidity;BMP_temperature;BMP_pressure;BME280_temperature;BME280_humidity;BME280_pressure;Samples;Min_cycle;Max_cycle;Signal;HPM_P1;HPM_P2
2021/10/12 00:00:27;;;;;;;20.73;12.67;;;5.80;95.30;;;;;;2074455;28;20184;-68
2021/10/12 00:01:28;;;;;;;21.47;13.00;;;5.80;95.30;;;;;;2074162;28;20660;-67
2021/10/12 00:02:28;;;;;;;21.43;12.50;;;5.80;95.10;;;;;;2074282;28;20210;-67
2021/10/12 00:03:29;;;;;;;23.13;12.60;;;5.80;95.20;;;;;;2074276;28;20192;-67
2021/10/12 00:04:30;;;;;;;23.67;13.10;;;5.80;95.20;;;;;;2074261;28;20189;-66
2021/10/12 00:05:30;;;;;;;23.23;14.50;;;5.80;95.20;;;;;;2073740;28;20327;-67
2021/10/12 00:06:31;;;;;;;22.83;13.57;;;5.70;95.30;;;;;;2073825;28;20181;-67
2021/10/12 00:07:32;;;;;;;22.83;13.57;;;5.70;95.50;;;;;;2074302;28;20546;-67
2021/10/12 00:08:33;;;;;;;29.70;15.23;;;5.70;95.60;;;;;;2074446;28;20181;-68
2021/10/12 00:09:34;;;;;;;25.23;16.08;;;5.70;95.60;;;;;;2074466;28;20283;-67
2021/10/12 00:10:35;;;;;;;28.50;16.23;;;5.70;95.70;;;;;;2073744;28;20643;-67
2021/10/12 00:11:36;;;;;;;26.93;15.60;;;5.70;95.70;;;;;;2073757;28;20208;-67
2021/10/12 00:12:36;;;;;;;36.17;18.10;;;5.70;95.70;;;;;;2074468;28;20196;-68
2021/10/12 00:13:37;;;;;;;28.27;16.30;;;5.70;95.80;;;;;;2074252;28;20531;-67
2021/10/12 00:14:38;;;;;;;30.13;16.73;;;5.70;96.00;;;;;;2074335;28;20532;-68
2021/10/12 00:15:38;;;;;;;32.57;16.40;;;5.60;96.10;;;;;;2074433;28;20182;-70
2021/10/12 00:16:39;;;;;;;29.17;17.00;;;5.70;96.10;;;;;;2074387;28;20649;-68
2021/10/12 00:17:40;;;;;;;30.57;16.57;;;5.60;96.30;;;;;;2074374;28;20647;-67
2021/10/12 00:18:41;;;;;;;31.17;17.90;;;5.60;96.50;;;;;;2074316;28;20177;-68
2021/10/12 00:19:41;;;;;;;30.87;16.87;;;5.60;96.40;;;;;;2074497;28;20679;-67
2021/10/12 00:20:42;;;;;;;30.00;17.03;;;5.60;96.20;;;;;;2074315;28;20239;-68
2021/10/12 00:21:43;;;;;;;30.87;17.20;;;5.60;96.20;;;;;;2074202;28;20208;-68
2021/10/12 00:22:44;;;;;;;31.60;17.55;;;5.60;96.30;;;;;;2074150;28;20352;-67
2021/10/12 00:23:44;;;;;;;31.63;17.37;;;5.60;96.40;;;;;;2074332;28;20181;-67
2021/10/12 00:24:45;;;;;;;28.03;16.23;;;5.50;96.40;;;;;;2073588;28;20284;-67
2021/10/12 00:25:46;;;;;;;26.53;15.67;;;5.50;96.40;;;;;;2073800;28;20216;-67
2021/10/12 00:26:46;;;;;;;29.90;15.50;;;5.50;96.20;;;;;;2074358;28;20192;-67
2021/10/12 00:27:49;;;;;;;27.90;14.77;;;5.50;96.00;;;;;;2073744;28;20700;-67
2021/10/12 00:28:50;;;;;;;30.27;15.88;;;5.50;96.00;;;;;;2073607;28;20233;-67
2021/10/12 00:29:50;;;;;;;29.23;15.83;;;5.40;96.00;;;;;;2074286;28;20189;-67
2021/10/12 00:30:51;;;;;;;30.50;16.47;;;5.50;96.20;;;;;;2074158;28;20177;-67
2021/10/12 00:31:52;;;;;;;32.60;17.08;;;5.40;96.40;;;;;;2073374;28;20676;-67
2021/10/12 00:32:53;;;;;;;27.80;16.23;;;5.40;96.70;;;;;;2073571;28;20184;-69
2021/10/12 00:33:56;;;;;;;27.30;14.83;;;5.40;96.70;;;;;;2074279;28;20173;-67
2021/10/12 00:34:56;;;;;;;28.95;16.02;;;5.40;96.80;;;;;;2074012;28;20193;-67
2021/10/12 00:35:57;;;;;;;28.43;16.03;;;5.40;96.70;;;;;;2074190;28;20235;-68
2021/10/12 00:36:58;;;;;;;27.20;14.97;;;5.40;96.90;;;;;;2074152;28;20173;-66
2021/10/12 00:37:58;;;;;;;25.33;16.03;;;5.40;96.90;;;;;;2074187;28;20663;-67
2021/10/12 00:39:02;;;;;;;27.87;15.03;;;5.40;96.80;;;;;;2074138;28;20195;-67
2021/10/12 00:40:04;;;;;;;23.45;14.02;;;5.40;96.80;;;;;;2074084;28;20664;-68
2021/10/12 00:41:08;;;;;;;33.70;16.38;;;5.40;96.90;;;;;;2073794;28;20199;-67
2021/10/12 00:42:11;;;;;;;28.00;14.80;;;5.40;96.70;;;;;;2074146;28;20177;-68
2021/10/12 00:43:12;;;;;;;29.33;15.23;;;5.40;96.80;;;;;;2074089;28;20185;-67
2021/10/12 00:44:13;;;;;;;28.57;14.37;;;5.40;96.70;;;;;;2074209;28;20174;-68
2021/10/12 00:45:14;;;;;;;29.63;14.80;;;5.40;96.80;;;;;;2074009;28;20211;-67
2021/10/12 00:46:15;;;;;;;25.27;14.05;;;5.40;96.70;;;;;;2073965;28;20679;-67
2021/10/12 00:47:16;;;;;;;28.38;16.35;;;5.40;96.60;;;;;;2072862;28;20188;-66
2021/10/12 00:48:17;;;;;;;27.33;16.33;;;5.40;96.60;;;;;;2073592;28;20177;-67
2021/10/12 00:49:17;;;;;;;31.43;15.13;;;5.50;96.60;;;;;;2074249;28;20269;-68
2021/10/12 00:50:18;;;;;;;25.60;14.77;;;5.40;96.40;;;;;;2073981;28;20680;-68
2021/10/12 00:51:19;;;;;;;28.07;15.70;;;5.50;96.30;;;;;;2073784;28;20235;-67
2021/10/12 00:52:19;;;;;;;25.23;14.20;;;5.50;96.30;;;;;;2074237;28;20223;-68
2021/10/12 00:53:20;;;;;;;28.23;15.00;;;5.50;96.40;;;;;;2074056;28;20177;-68
2021/10/12 00:54:21;;;;;;;26.47;14.70;;;5.50;96.40;;;;;;2074120;28;20597;-67
2021/10/12 00:55:21;;;;;;;30.00;14.37;;;5.50;96.30;;;;;;2074068;28;20277;-69
2021/10/12 00:56:23;;;;;;;20.20;12.07;;;5.50;96.20;;;;;;2074138;28;20192;-68
2021/10/12 00:57:24;;;;;;;19.65;11.55;;;5.50;96.00;;;;;;2074099;28;20733;-68
2021/10/12 00:58:25;;;;;;;17.75;10.52;;;5.40;95.90;;;;;;2074204;28;20188;-68
2021/10/12 00:59:25;;;;;;;26.47;12.03;;;5.30;95.70;;;;;;2074113;28;20268;-69
2021/10/12 01:00:26;;;;;;;20.50;11.40;;;5.20;96.00;;;;;;2074041;28;20185;-67
2021/10/12 01:01:27;;;;;;;20.30;12.70;;;5.20;96.30;;;;;;2073079;28;20608;-67
2021/10/12 01:02:30;;;;;;;21.93;12.20;;;5.20;96.30;;;;;;2073382;28;20570;-67
2021/10/12 01:03:31;;;;;;;23.58;12.18;;;5.20;96.10;;;;;;2074041;28;20271;-67
2021/10/12 01:04:32;;;;;;;21.73;11.60;;;5.20;95.90;;;;;;2073899;28;20192;-68
2021/10/12 01:05:33;;;;;;;24.60;12.00;;;5.20;95.70;;;;;;2074192;28;20181;-68
2021/10/12 01:06:35;;;;;;;18.77;11.73;;;5.20;95.70;;;;;;2073926;28;20185;-68
2021/10/12 01:07:36;;;;;;;23.63;13.23;;;5.20;95.70;;;;;;2073396;28;20253;-67
2021/10/12 01:08:36;;;;;;;23.37;12.47;;;5.20;95.80;;;;;;2073495;28;20227;-67
2021/10/12 01:09:39;;;;;;;25.77;13.83;;;5.20;95.80;;;;;;2074067;28;20649;-67
2021/10/12 01:10:40;;;;;;;27.98;14.27;;;5.10;96.10;;;;;;2073889;28;20212;-68
2021/10/12 01:11:41;;;;;;;21.53;12.87;;;5.10;96.40;;;;;;2073845;28;20671;-67
2021/10/12 01:12:42;;;;;;;22.20;13.88;;;5.20;96.70;;;;;;2073802;28;20567;-66
2021/10/12 01:13:42;;;;;;;24.23;13.90;;;5.10;96.80;;;;;;2074090;28;20185;-67
2021/10/12 01:14:43;;;;;;;24.37;13.30;;;5.20;96.90;;;;;;2073883;28;20198;-67
2021/10/12 01:15:44;;;;;;;26.40;14.87;;;5.20;97.00;;;;;;2074000;28;20208;-67
2021/10/12 01:16:45;;;;;;;22.87;13.37;;;5.20;97.10;;;;;;2073946;28;20672;-68
2021/10/12 01:17:45;;;;;;;29.63;15.33;;;5.20;97.20;;;;;;2073294;28;20719;-67
2021/10/12 01:19:03;;;;;;;28.27;14.93;;;5.30;97.20;;;;;;2073351;28;20565;-67
2021/10/12 01:20:09;;;;;;;23.08;13.55;;;5.30;97.40;;;;;;2074165;28;20169;-69
2021/10/12 01:21:10;;;;;;;25.08;13.57;;;5.40;96.70;;;;;;2081822;28;20176;-67
2021/10/12 01:22:11;;;;;;;21.40;12.13;;;5.40;96.40;;;;;;2089824;28;20179;-67
2021/10/12 01:23:13;;;;;;;26.00;13.03;;;5.40;96.20;;;;;;2081827;28;20175;-67
2021/10/12 01:24:16;;;;;;;19.65;11.55;;;5.50;96.10;;;;;;2082027;28;20267;-67
2021/10/12 01:25:17;;;;;;;20.15;12.27;;;5.50;95.80;;;;;;2081922;28;20287;-67
2021/10/12 01:26:17;;;;;;;21.77;12.17;;;5.50;95.70;;;;;;2081409;28;20261;-67
2021/10/12 01:27:22;;;;;;;25.37;13.67;;;5.50;96.10;;;;;;2073259;28;20300;-68
2021/10/12 01:28:23;;;;;;;22.30;12.63;;;5.50;95.60;;;;;;2081434;28;20180;-68
2021/10/12 01:29:24;;;;;;;22.53;12.47;;;5.50;95.70;;;;;;2082021;28;20181;-67
2021/10/12 01:30:24;;;;;;;23.37;13.13;;;5.60;95.60;;;;;;2082032;28;20204;-69
2021/10/12 01:31:27;;;;;;;22.40;13.10;;;5.60;95.50;;;;;;2081812;28;20187;-67
2021/10/12 01:32:28;;;;;;;24.10;12.55;;;5.60;95.50;;;;;;2081516;28;20180;-67
2021/10/12 01:33:29;;;;;;;18.93;12.50;;;5.60;95.40;;;;;;2081380;28;20204;-68
2021/10/12 01:34:29;;;;;;;20.33;12.03;;;5.60;95.40;;;;;;2081881;28;20207;-67
2021/10/12 01:35:30;;;;;;;19.03;11.40;;;5.60;95.20;;;;;;2081941;28;20181;-67
2021/10/12 01:36:31;;;;;;;18.47;11.20;;;5.70;94.90;;;;;;2082119;28;20206;-68
2021/10/12 01:37:32;;;;;;;18.03;10.73;;;5.70;94.80;;;;;;2081884;28;20208;-67
2021/10/12 01:38:33;;;;;;;22.37;11.57;;;5.70;94.80;;;;;;2081973;28;20210;-67
2021/10/12 01:39:34;;;;;;;19.73;11.40;;;5.70;94.60;;;;;;2081899;28;20651;-66
2021/10/12 01:40:34;;;;;;;20.53;11.80;;;5.60;94.50;;;;;;2082166;28;20226;-67
2021/10/12 01:41:36;;;;;;;20.80;12.10;;;5.60;94.50;;;;;;2081708;28;20264;-67
2021/10/12 01:42:37;;;;;;;19.27;11.52;;;5.60;94.40;;;;;;2082406;28;20375;-66
2021/10/12 01:43:38;;;;;;;22.85;12.80;;;5.50;94.60;;;;;;2082180;28;20187;-67
2021/10/12 01:44:39;;;;;;;23.83;12.80;;;5.50;94.90;;;;;;2082063;28;20185;-69
2021/10/12 01:45:39;;;;;;;20.70;12.10;;;5.50;95.00;;;;;;2082000;28;20427;-67
2021/10/12 01:46:41;;;;;;;23.80;13.00;;;5.50;95.10;;;;;;2082020;28;20261;-67
2021/10/12 01:47:43;;;;;;;23.02;12.40;;;5.50;95.10;;;;;;2081337;28;20242;-67
2021/10/12 01:48:43;;;;;;;26.63;13.48;;;5.50;95.20;;;;;;2081341;28;20277;-67
2021/10/12 01:49:44;;;;;;;20.77;12.50;;;5.50;95.20;;;;;;2082004;28;20255;-67
2021/10/12 01:50:46;;;;;;;21.40;12.60;;;5.60;95.30;;;;;;2081669;28;20702;-68
2021/10/12 01:51:46;;;;;;;23.90;12.65;;;5.70;95.30;;;;;;2081641;28;20187;-67
2021/10/12 01:52:47;;;;;;;24.03;13.47;;;5.70;95.30;;;;;;2081888;28;20191;-68
2021/10/12 01:53:48;;;;;;;22.90;13.07;;;5.70;95.50;;;;;;2081943;28;20198;-67
2021/10/12 01:54:48;;;;;;;22.53;13.73;;;5.70;95.50;;;;;;2081944;28;20636;-67
2021/10/12 01:55:49;;;;;;;26.77;13.27;;;5.70;95.50;;;;;;2081130;28;20226;-67
2021/10/12 01:56:52;;;;;;;23.63;13.40;;;5.80;95.40;;;;;;2079678;28;20181;-67
2021/10/12 01:57:53;;;;;;;24.60;12.85;;;5.80;95.50;;;;;;2073282;28;20611;-66
2021/10/12 01:58:53;;;;;;;25.83;13.00;;;5.80;95.50;;;;;;2073854;28;20201;-66
2021/10/12 01:59:54;;;;;;;21.33;12.77;;;5.90;95.50;;;;;;2073599;28;20250;-67
2021/10/12 02:00:55;;;;;;;26.77;13.30;;;5.90;95.40;;;;;;2073504;28;20553;-68
2021/10/12 02:01:58;;;;;;;25.57;13.43;;;5.90;95.60;;;;;;2073426;28;20667;-67
2021/10/12 02:02:58;;;;;;;24.15;13.70;;;5.90;95.80;;;;;;2073552;28;20606;-66
2021/10/12 02:03:59;;;;;;;24.40;13.83;;;5.90;95.70;;;;;;2073653;28;20170;-68
2021/10/12 02:05:00;;;;;;;28.50;14.67;;;5.90;95.60;;;;;;2073475;28;20196;-67
2021/10/12 02:06:00;;;;;;;27.17;13.63;;;6.00;95.50;;;;;;2073647;28;20170;-66
2021/10/12 02:07:01;;;;;;;26.50;14.50;;;6.00;95.50;;;;;;2073499;28;20188;-68
2021/10/12 02:08:02;;;;;;;25.43;14.80;;;6.00;95.50;;;;;;2073748;28;20174;-67
2021/10/12 02:09:04;;;;;;;22.50;12.93;;;6.00;95.50;;;;;;2073649;28;20350;-68
2021/10/12 02:10:05;;;;;;;20.38;13.27;;;6.00;95.60;;;;;;2073517;28;20216;-67
2021/10/12 02:11:06;;;;;;;21.05;12.38;;;6.00;95.30;;;;;;2073234;28;20224;-66
2021/10/12 02:12:07;;;;;;;21.58;11.65;;;6.00;95.20;;;;;;2072891;28;20209;-66
2021/10/12 02:13:08;;;;;;;22.73;11.70;;;5.90;94.90;;;;;;2072817;28;20185;-67
2021/10/12 02:14:09;;;;;;;23.07;11.60;;;5.90;94.90;;;;;;2073569;28;20749;-67
2021/10/12 02:15:10;;;;;;;20.35;11.95;;;5.80;94.80;;;;;;2073448;28;20545;-67
2021/10/12 02:16:10;;;;;;;20.00;12.27;;;5.80;94.90;;;;;;2073554;28;20669;-66
2021/10/12 02:17:11;;;;;;;21.53;11.93;;;5.70;95.10;;;;;;2073389;28;20177;-67
2021/10/12 02:18:12;;;;;;;22.83;12.83;;;5.70;95.30;;;;;;2073524;28;20180;-67
2021/10/12 02:19:13;;;;;;;26.20;13.97;;;5.70;95.70;;;;;;2073468;28;20247;-67
2021/10/12 02:20:14;;;;;;;21.50;12.53;;;5.70;95.80;;;;;;2072881;28;20297;-69
2021/10/12 02:21:15;;;;;;;24.27;12.52;;;5.70;95.80;;;;;;2077272;28;20702;-68
2021/10/12 02:22:16;;;;;;;25.48;14.40;;;5.70;95.80;;;;;;2081565;28;20203;-68
2021/10/12 02:23:17;;;;;;;25.90;14.47;;;5.70;95.90;;;;;;2081491;28;20220;-67
2021/10/12 02:24:17;;;;;;;29.23;15.30;;;5.70;95.70;;;;;;2081654;28;20181;-68
2021/10/12 02:25:18;;;;;;;26.93;15.03;;;5.70;95.80;;;;;;2080940;28;20283;-67
2021/10/12 02:26:19;;;;;;;27.00;16.33;;;5.70;96.10;;;;;;2081042;28;20181;-67
2021/10/12 02:27:20;;;;;;;31.10;15.87;;;5.70;96.30;;;;;;2081568;28;20181;-68
2021/10/12 02:28:20;;;;;;;29.40;16.80;;;5.70;96.20;;;;;;2081534;28;20625;-67
2021/10/12 02:29:21;;;;;;;30.30;15.40;;;5.80;96.00;;;;;;2081563;28;20550;-67
2021/10/12 02:30:22;;;;;;;27.43;16.87;;;5.70;95.90;;;;;;2081507;28;20291;-67
2021/10/12 02:31:23;;;;;;;29.60;16.00;;;5.80;95.90;;;;;;2081303;28;20647;-67
2021/10/12 02:32:24;;;;;;;31.70;17.40;;;5.80;95.90;;;;;;2080993;28;20214;-67
2021/10/12 02:33:25;;;;;;;30.37;16.13;;;5.80;95.90;;;;;;2080895;28;20195;-67
2021/10/12 02:34:25;;;;;;;33.90;16.83;;;5.80;96.20;;;;;;2081631;28;20846;-67
2021/10/12 02:35:26;;;;;;;27.73;16.33;;;5.80;96.20;;;;;;2081462;28;20204;-68
2021/10/12 02:36:27;;;;;;;35.37;18.00;;;5.80;96.20;;;;;;2081540;28;20181;-67
2021/10/12 02:37:28;;;;;;;36.73;18.50;;;5.80;96.30;;;;;;2081590;28;20252;-66
2021/10/12 02:38:28;;;;;;;33.50;19.13;;;5.80;96.30;;;;;;2081497;28;20172;-66
2021/10/12 02:39:29;;;;;;;31.23;17.80;;;5.80;96.50;;;;;;2081447;28;20651;-67
2021/10/12 02:40:30;;;;;;;31.23;16.57;;;5.90;96.70;;;;;;2081580;28;20644;-66
2021/10/12 02:41:30;;;;;;;35.90;17.60;;;5.90;96.50;;;;;;2081258;28;20272;-67
2021/10/12 02:42:31;;;;;;;38.37;20.10;;;5.90;96.50;;;;;;2081595;28;20201;-66
2021/10/12 02:43:32;;;;;;;32.93;17.40;;;5.90;96.50;;;;;;2081452;28;20637;-67
2021/10/12 02:44:33;;;;;;;35.20;18.47;;;5.90;96.60;;;;;;2081336;28;20181;-66
2021/10/12 02:45:34;;;;;;;33.15;17.73;;;5.90;97.00;;;;;;2081437;28;20181;-67
2021/10/12 02:46:34;;;;;;;37.17;17.90;;;5.90;96.50;;;;;;2081500;28;20658;-67
2021/10/12 02:47:35;;;;;;;32.43;17.90;;;6.00;96.50;;;;;;2081488;28;20288;-66
2021/10/12 02:48:36;;;;;;;37.03;18.23;;;6.00;96.40;;;;;;2081447;28;20640;-67
2021/10/12 02:49:36;;;;;;;40.20;19.23;;;6.00;96.60;;;;;;2081430;28;20185;-67
2021/10/12 02:50:37;;;;;;;38.03;19.40;;;6.00;96.70;;;;;;2081351;28;20311;-66
2021/10/12 02:51:38;;;;;;;35.77;19.37;;;6.00;96.80;;;;;;2081274;28;20183;-67
2021/10/12 02:52:38;;;;;;;41.03;22.00;;;6.00;97.00;;;;;;2081504;28;20179;-68
2021/10/12 02:53:39;;;;;;;39.23;21.17;;;6.00;97.40;;;;;;2081359;28;20173;-67
2021/10/12 02:54:40;;;;;;;36.30;19.40;;;6.00;97.50;;;;;;2081411;28;20177;-67
2021/10/12 02:55:41;;;;;;;41.97;21.13;;;6.10;97.50;;;;;;2081374;28;20181;-68
2021/10/12 02:56:41;;;;;;;43.23;21.50;;;6.10;97.30;;;;;;2081429;28;20645;-67
2021/10/12 02:57:42;;;;;;;39.67;21.03;;;6.10;97.70;;;;;;2081560;28;20173;-67
2021/10/12 02:58:43;;;;;;;37.80;21.73;;;6.10;97.20;;;;;;2081364;28;20176;-67
2021/10/12 02:59:43;;;;;;;40.17;21.03;;;6.20;97.20;;;;;;2081454;28;20655;-67
2021/10/12 03:00:44;;;;;;;37.27;18.93;;;6.20;97.20;;;;;;2081285;28;20227;-67
2021/10/12 03:01:45;;;;;;;40.73;21.47;;;6.20;97.20;;;;;;2081171;28;20192;-67
2021/10/12 03:02:46;;;;;;;43.08;21.80;;;6.20;97.00;;;;;;2081342;28;20707;-67
2021/10/12 03:03:47;;;;;;;33.40;19.67;;;6.20;97.00;;;;;;2081305;28;20188;-67
2021/10/12 03:04:47;;;;;;;43.57;22.13;;;6.20;97.00;;;;;;2081302;28;20181;-67
2021/10/12 03:05:48;;;;;;;39.60;20.60;;;6.20;97.20;;;;;;2081321;28;20703;-67
2021/10/12 03:06:48;;;;;;;42.13;21.47;;;6.20;97.20;;;;;;2081333;28;20552;-68
2021/10/12 03:07:49;;;;;;;38.70;20.90;;;6.20;97.70;;;;;;2081444;28;20185;-67
2021/10/12 03:08:50;;;;;;;38.53;21.60;;;6.20;97.10;;;;;;2081325;28;20188;-67
2021/10/12 03:09:51;;;;;;;44.57;21.40;;;6.20;97.10;;;;;;2080726;28;20574;-70
2021/10/12 03:10:51;;;;;;;34.63;18.93;;;6.30;97.20;;;;;;2081213;28;20330;-67
2021/10/12 03:11:52;;;;;;;37.63;19.37;;;6.30;97.30;;;;;;2081146;28;20640;-67
2021/10/12 03:12:52;;;;;;;39.93;21.20;;;6.30;97.30;;;;;;2080638;28;20185;-69
2021/10/12 03:13:53;;;;;;;39.07;20.37;;;6.30;97.20;;;;;;2080768;28;20177;-67
2021/10/12 03:14:54;;;;;;;35.57;19.23;;;6.30;97.70;;;;;;2081259;28;20209;-67
2021/10/12 03:15:55;;;;;;;34.63;18.60;;;6.30;97.20;;;;;;2081353;28;20667;-68
2021/10/12 03:16:55;;;;;;;34.03;19.00;;;6.30;97.20;;;;;;2080681;28;20597;-67
2021/10/12 03:17:56;;;;;;;37.40;19.40;;;6.40;97.20;;;;;;2080697;28;20181;-67
2021/10/12 03:18:57;;;;;;;36.73;17.50;;;6.40;97.20;;;;;;2081023;28;20245;-68
2021/10/12 03:19:57;;;;;;;34.13;18.20;;;6.40;97.10;;;;;;2081330;28;20177;-66
2021/10/12 03:20:59;;;;;;;33.80;19.57;;;6.40;97.10;;;;;;2081225;28;20248;-67
2021/10/12 03:22:21;;;;;;;36.30;18.40;;;6.40;97.20;;;;;;2081283;28;20177;-67
2021/10/12 03:23:20;;;;;;;30.38;17.15;;;6.40;97.20;;;;;;2080989;28;20188;-67
2021/10/12 03:24:21;;;;;;;36.40;18.67;;;6.40;97.10;;;;;;2081326;28;20192;-67
2021/10/12 03:25:22;;;;;;;31.53;17.40;;;6.40;97.10;;;;;;2081186;28;20196;-66
2021/10/12 03:26:23;;;;;;;34.20;17.77;;;6.40;97.10;;;;;;2081338;28;20205;-67
2021/10/12 03:27:24;;;;;;;35.00;18.17;;;6.40;97.00;;;;;;2081174;28;20196;-68
2021/10/12 03:28:24;;;;;;;33.33;17.97;;;6.50;97.00;;;;;;2081360;28;20192;-67
2021/10/12 03:29:25;;;;;;;35.27;18.40;;;6.50;97.00;;;;;;2080588;28;20555;-69
2021/10/12 03:30:26;;;;;;;37.13;18.57;;;6.40;96.90;;;;;;2080667;28;20212;-67
2021/10/12 03:31:26;;;;;;;32.17;16.87;;;6.40;97.00;;;;;;2080968;28;20698;-67
2021/10/12 03:32:27;;;;;;;37.00;18.63;;;6.50;96.90;;;;;;2081192;28;20214;-69
2021/10/12 03:33:28;;;;;;;31.80;17.30;;;6.50;96.80;;;;;;2081183;28;20644;-68
2021/10/12 03:34:30;;;;;;;31.57;16.03;;;6.50;96.70;;;;;;2081303;28;20210;-67
2021/10/12 03:35:34;;;;;;;31.23;17.33;;;6.50;96.60;;;;;;2080635;28;20177;-67
2021/10/12 03:36:35;;;;;;;32.17;16.52;;;6.50;96.60;;;;;;2080639;28;20181;-67
2021/10/12 03:37:35;;;;;;;33.30;17.67;;;6.40;96.60;;;;;;2080677;28;20644;-68
2021/10/12 03:38:36;;;;;;;32.37;16.63;;;6.40;96.50;;;;;;2081319;28;20727;-67
2021/10/12 03:39:37;;;;;;;32.93;17.63;;;6.40;96.50;;;;;;2081226;28;20670;-66
2021/10/12 03:40:37;;;;;;;30.27;16.80;;;6.40;96.30;;;;;;2081280;28;20539;-68
2021/10/12 03:41:38;;;;;;;33.23;16.07;;;6.40;96.20;;;;;;2081134;28;20271;-67
2021/10/12 03:42:39;;;;;;;29.30;16.73;;;6.30;96.30;;;;;;2081297;28;20267;-67
2021/10/12 03:43:39;;;;;;;37.13;17.77;;;6.30;96.40;;;;;;2081132;28;20315;-68
2021/10/12 03:44:40;;;;;;;26.70;16.13;;;6.30;96.60;;;;;;2081242;28;20239;-67
2021/10/12 03:45:41;;;;;;;34.47;17.17;;;6.20;96.70;;;;;;2081113;28;20185;-68
2021/10/12 03:46:41;;;;;;;39.03;17.77;;;6.20;96.90;;;;;;2081208;28;20185;-66
2021/10/12 03:47:42;;;;;;;35.17;18.03;;;6.20;97.00;;;;;;2081190;28;20208;-67
2021/10/12 03:48:43;;;;;;;33.57;18.17;;;6.20;97.10;;;;;;2081170;28;20204;-65
2021/10/12 03:49:43;;;;;;;32.07;16.90;;;6.20;97.10;;;;;;2081296;28;20177;-67
2021/10/12 03:50:44;;;;;;;34.63;16.37;;;6.10;97.10;;;;;;2081000;28;20679;-68
2021/10/12 03:51:45;;;;;;;33.07;17.43;;;6.20;97.20;;;;;;2081068;28;20173;-67
2021/10/12 03:52:46;;;;;;;32.43;17.50;;;6.20;97.10;;;;;;2081192;28;20226;-67
2021/10/12 03:53:46;;;;;;;34.37;18.20;;;6.20;97.00;;;;;;2081163;28;20196;-67
2021/10/12 03:54:47;;;;;;;32.37;18.23;;;6.20;97.00;;;;;;2081077;28;20184;-66
2021/10/12 03:55:48;;;;;;;33.13;16.67;;;6.30;96.90;;;;;;2080633;28;20658;-68
2021/10/12 03:56:48;;;;;;;31.47;17.10;;;6.20;96.80;;;;;;2080638;28;20201;-67
2021/10/12 03:57:49;;;;;;;34.47;17.73;;;6.20;96.70;;;;;;2081172;28;20652;-67
2021/10/12 03:58:50;;;;;;;35.97;19.27;;;6.20;96.70;;;;;;2081087;28;20177;-68
2021/10/12 03:59:50;;;;;;;38.17;17.73;;;6.20;96.60;;;;;;2081197;28;20524;-67
2021/10/12 04:00:51;;;;;;;33.07;18.23;;;6.30;96.70;;;;;;2081104;28;20268;-67
2021/10/12 04:01:52;;;;;;;33.27;17.17;;;6.30;96.70;;;;;;2078604;28;20184;-68
2021/10/12 04:02:52;;;;;;;37.60;18.87;;;6.20;96.60;;;;;;2072895;28;20610;-67
2021/10/12 04:03:54;;;;;;;38.67;19.40;;;6.30;96.70;;;;;;2073010;28;20204;-67
2021/10/12 04:04:54;;;;;;;33.85;18.92;;;6.30;96.80;;;;;;2072805;28;20276;-68
2021/10/12 04:05:55;;;;;;;41.90;19.97;;;6.30;96.70;;;;;;2072967;28;20240;-67
2021/10/12 04:06:56;;;;;;;37.87;19.30;;;6.20;97.20;;;;;;2072962;28;20178;-68
2021/10/12 04:07:56;;;;;;;37.83;19.20;;;6.30;96.70;;;;;;2072896;28;20205;-67
2021/10/12 04:08:57;;;;;;;38.47;20.20;;;6.30;96.60;;;;;;2072857;28;20209;-66
2021/10/12 04:09:58;;;;;;;36.07;19.67;;;6.30;96.60;;;;;;2072714;28;20202;-66
2021/10/12 04:10:58;;;;;;;38.27;20.30;;;6.30;96.60;;;;;;2072813;28;20198;-67
2021/10/12 04:11:59;;;;;;;38.00;21.10;;;6.30;96.60;;;;;;2072774;28;20789;-66
2021/10/12 04:13:01;;;;;;;38.80;19.43;;;6.30;96.80;;;;;;2072800;28;20178;-66
2021/10/12 04:14:02;;;;;;;43.60;20.50;;;6.20;96.80;;;;;;2072887;28;20173;-67
2021/10/12 04:15:04;;;;;;;43.73;22.17;;;6.20;97.00;;;;;;2072733;28;20239;-67
2021/10/12 04:16:05;;;;;;;38.63;20.75;;;6.20;97.70;;;;;;2072807;28;20178;-68
2021/10/12 04:17:05;;;;;;;40.22;21.05;;;6.20;97.30;;;;;;2072827;28;20181;-67
2021/10/12 04:18:06;;;;;;;43.53;20.00;;;6.20;97.20;;;;;;2072848;28;20405;-67
2021/10/12 04:19:07;;;;;;;41.97;20.37;;;6.30;97.10;;;;;;2072824;28;20224;-68
2021/10/12 04:20:09;;;;;;;35.53;19.40;;;6.30;97.00;;;;;;2072784;28;20204;-67
2021/10/12 04:21:09;;;;;;;32.10;17.13;;;6.30;96.90;;;;;;2073069;28;20659;-66
2021/10/12 04:22:10;;;;;;;28.10;16.13;;;6.20;96.60;;;;;;2074304;28;20181;-67
2021/10/12 04:23:12;;;;;;;29.33;16.00;;;6.20;96.70;;;;;;2074251;28;20189;-66
2021/10/12 04:24:12;;;;;;;29.05;15.98;;;6.20;96.60;;;;;;2074308;28;20239;-67
2021/10/12 04:25:13;;;;;;;28.27;15.07;;;6.20;96.40;;;;;;2074229;28;20205;-67
2021/10/12 04:26:16;;;;;;;24.07;14.83;;;6.20;96.20;;;;;;2074258;28;20170;-67
2021/10/12 04:27:17;;;;;;;25.95;14.70;;;6.10;96.00;;;;;;2074213;28;20416;-67
2021/10/12 04:28:18;;;;;;;27.02;13.98;;;6.10;95.70;;;;;;2074277;28;20194;-69
2021/10/12 04:29:19;;;;;;;29.50;14.83;;;6.10;95.70;;;;;;2074255;28;20534;-66
2021/10/12 04:30:20;;;;;;;29.33;15.10;;;6.00;95.60;;;;;;2074124;28;20572;-66
2021/10/12 04:31:20;;;;;;;26.57;14.27;;;6.00;95.60;;;;;;2073953;28;20178;-67
2021/10/12 04:32:21;;;;;;;26.57;14.53;;;6.00;95.80;;;;;;2074172;28;20177;-66
2021/10/12 04:33:22;;;;;;;22.47;13.90;;;6.00;95.90;;;;;;2074267;28;20240;-66
2021/10/12 04:34:22;;;;;;;28.77;14.97;;;6.00;95.80;;;;;;2074329;28;20549;-68
2021/10/12 04:35:23;;;;;;;31.83;15.77;;;6.00;95.80;;;;;;2074159;28;20198;-67
2021/10/12 04:36:24;;;;;;;28.37;16.37;;;5.90;95.90;;;;;;2074136;28;20193;-67
2021/10/12 04:37:25;;;;;;;32.43;16.20;;;5.90;96.00;;;;;;2074227;28;20177;-68
2021/10/12 04:38:25;;;;;;;36.73;17.33;;;5.90;96.20;;;;;;2074234;28;20216;-67
2021/10/12 04:39:28;;;;;;;29.97;16.60;;;5.90;96.50;;;;;;2074289;28;20648;-66
2021/10/12 04:40:32;;;;;;;38.38;18.65;;;5.90;96.50;;;;;;2074227;28;20185;-66
2021/10/12 04:41:33;;;;;;;30.98;18.00;;;5.90;96.60;;;;;;2073165;28;20674;-66
2021/10/12 04:42:35;;;;;;;35.22;17.25;;;5.90;96.60;;;;;;2065908;28;20190;-66
2021/10/12 04:43:36;;;;;;;31.92;17.63;;;5.90;96.60;;;;;;2065598;28;20186;-67
2021/10/12 04:44:37;;;;;;;33.38;17.92;;;5.90;96.60;;;;;;2073381;28;20181;-68
2021/10/12 04:45:39;;;;;;;34.90;18.50;;;5.90;96.60;;;;;;2073578;28;20758;-67
2021/10/12 04:46:40;;;;;;;35.28;18.23;;;6.00;96.60;;;;;;2065514;28;20183;-66
2021/10/12 04:47:41;;;;;;;34.17;17.63;;;6.00;96.60;;;;;;2073461;28;20233;-67
2021/10/12 04:48:41;;;;;;;36.47;19.30;;;6.00;96.60;;;;;;2074085;28;20694;-66
2021/10/12 04:49:43;;;;;;;33.50;17.60;;;6.00;96.60;;;;;;2074088;28;20618;-66
2021/10/12 04:50:44;;;;;;;37.38;19.60;;;6.00;96.70;;;;;;2073941;28;20224;-65
2021/10/12 04:51:45;;;;;;;42.63;19.53;;;6.00;96.80;;;;;;2073352;28;20451;-65
2021/10/12 04:52:45;;;;;;;40.07;18.97;;;6.10;96.90;;;;;;2073436;28;20668;-66
2021/10/12 04:53:46;;;;;;;37.87;19.30;;;6.10;96.90;;;;;;2074099;28;20177;-65
2021/10/12 04:54:47;;;;;;;39.57;20.13;;;6.10;97.00;;;;;;2073939;28;20190;-65
2021/10/12 04:55:48;;;;;;;36.33;19.63;;;6.10;97.10;;;;;;2074043;28;20197;-66
2021/10/12 04:56:49;;;;;;;32.53;18.20;;;6.20;97.00;;;;;;2073334;28;20184;-65
2021/10/12 04:57:49;;;;;;;35.40;17.80;;;6.20;97.00;;;;;;2073378;28;20213;-66
2021/10/12 04:58:50;;;;;;;33.30;17.17;;;6.20;96.80;;;;;;2074057;28;20178;-65
2021/10/12 04:59:51;;;;;;;26.27;15.40;;;6.20;96.60;;;;;;2074055;28;20712;-65
2021/10/12 05:00:52;;;;;;;30.83;17.20;;;6.30;96.30;;;;;;2073949;28;20178;-66
2021/10/12 05:01:52;;;;;;;29.73;15.00;;;6.30;96.10;;;;;;2073801;28;20251;-66
2021/10/12 05:02:53;;;;;;;28.80;15.13;;;6.30;96.00;;;;;;2073816;28;20343;-65
2021/10/12 05:03:54;;;;;;;33.87;18.37;;;6.30;95.80;;;;;;2073963;28;20206;-66
2021/10/12 05:04:54;;;;;;;34.90;17.37;;;6.30;95.90;;;;;;2073882;28;20193;-65
2021/10/12 05:05:55;;;;;;;30.70;17.50;;;6.30;96.20;;;;;;2073951;28;20189;-65
2021/10/12 05:06:56;;;;;;;31.05;16.25;;;6.20;96.30;;;;;;2073975;28;20637;-65
2021/10/12 05:07:57;;;;;;;32.57;17.20;;;6.30;96.40;;;;;;2073938;28;20185;-65
2021/10/12 05:08:58;;;;;;;32.63;17.10;;;6.20;96.50;;;;;;2073853;28;20628;-65
2021/10/12 05:09:58;;;;;;;29.53;16.23;;;6.20;96.60;;;;;;2073876;28;20185;-65
2021/10/12 05:10:59;;;;;;;29.20;16.67;;;6.30;96.60;;;;;;2073194;28;20189;-65
2021/10/12 05:12:00;;;;;;;28.07;16.37;;;6.30;96.40;;;;;;2073179;28;20213;-65
2021/10/12 05:13:00;;;;;;;29.33;15.87;;;6.30;96.50;;;;;;2073901;28;20177;-65